createdAt,value
2018-10-02T00:01:03.287Z,14.80
2018-10-02T00:03:37.741Z,14.70
2018-10-02T00:06:12.455Z,12.83
2018-10-02T00:08:47.012Z,12.93
2018-10-02T00:11:27.166Z,11.53
2018-10-02T00:14:07.148Z,12.27
2018-10-02T00:16:42.229Z,12.53
2018-10-02T00:19:16.881Z,12.13
2018-10-02T00:21:51.489Z,11.70
2018-10-02T00:24:25.856Z,10.23
2018-10-02T00:27:00.463Z,10.57
2018-10-02T00:29:35.281Z,10.90
2018-10-02T00:32:10.147Z,9.90
2018-10-02T00:34:44.799Z,9.93
2018-10-02T00:37:19.560Z,10.03
2018-10-02T00:39:54.181Z,9.53
2018-10-02T00:42:29.075Z,9.30
2018-10-02T00:45:03.834Z,9.87
2018-10-02T00:47:38.550Z,9.17
2018-10-02T00:50:13.059Z,11.40
2018-10-02T00:52:47.572Z,10.00
2018-10-02T00:55:21.989Z,9.63
2018-10-02T00:57:56.659Z,9.60
2018-10-02T01:00:31.375Z,9.17
2018-10-02T01:03:06.602Z,9.00
2018-10-02T01:05:40.971Z,9.87
2018-10-02T01:08:15.795Z,11.43
2018-10-02T01:10:50.171Z,9.77
2018-10-02T01:13:24.859Z,9.90
2018-10-02T01:15:59.832Z,10.30
2018-10-02T01:18:34.555Z,11.90
2018-10-02T01:21:08.883Z,11.57
2018-10-02T01:23:43.907Z,11.13
2018-10-02T01:26:19.184Z,12.23
2018-10-02T01:28:53.682Z,10.93
2018-10-02T01:31:28.459Z,11.50
2018-10-02T01:34:03.131Z,12.03
2018-10-02T01:36:37.567Z,11.47
2018-10-02T01:39:12.136Z,11.47
2018-10-02T01:41:46.935Z,11.63
2018-10-02T01:44:21.534Z,12.07
2018-10-02T01:46:56.079Z,11.73
2018-10-02T01:49:30.740Z,12.03
2018-10-02T01:52:05.348Z,11.80
2018-10-02T01:54:40.240Z,11.73
2018-10-02T01:57:15.177Z,13.03
2018-10-02T01:59:49.909Z,11.67
2018-10-02T02:02:24.788Z,11.53
2018-10-02T02:04:59.137Z,11.07
2018-10-02T02:07:33.420Z,12.03
2018-10-02T02:10:08.048Z,11.33
2018-10-02T02:12:42.559Z,11.83
2018-10-02T02:15:17.787Z,12.00
2018-10-02T02:17:52.255Z,12.00
2018-10-02T02:20:26.952Z,11.37
2018-10-02T02:23:01.435Z,12.43
2018-10-02T02:25:35.827Z,11.67
2018-10-02T02:28:10.650Z,10.17
2018-10-02T02:30:45.193Z,10.20
2018-10-02T02:33:19.751Z,12.10
2018-10-02T02:35:54.060Z,11.23
2018-10-02T02:38:28.459Z,10.30
2018-10-02T02:41:02.822Z,10.57
2018-10-02T02:43:37.244Z,10.77
2018-10-02T02:46:11.759Z,7.97
2018-10-02T02:48:51.841Z,7.83
2018-10-02T02:51:29.361Z,7.63
2018-10-02T02:54:04.416Z,6.93
2018-10-02T02:56:38.920Z,9.80
2018-10-02T02:59:13.623Z,9.63
2018-10-02T03:01:48.667Z,6.37
2018-10-02T03:04:23.487Z,6.87
2018-10-02T03:06:58.031Z,7.43
2018-10-02T03:09:33.116Z,7.23
2018-10-02T03:12:08.399Z,6.33
2018-10-02T03:14:42.944Z,7.50
2018-10-02T03:17:17.483Z,7.20
2018-10-02T03:19:52.507Z,7.27
2018-10-02T03:22:27.191Z,7.80
2018-10-02T03:25:01.626Z,7.13
2018-10-02T03:27:36.335Z,8.27
2018-10-02T03:30:11.159Z,11.67
2018-10-02T03:32:46.119Z,9.07
2018-10-02T03:35:20.667Z,8.40
2018-10-02T03:37:55.180Z,10.60
2018-10-02T03:40:31.916Z,9.40
2018-10-02T03:43:06.759Z,9.53
2018-10-02T03:45:41.804Z,12.17
2018-10-02T03:48:16.312Z,11.43
2018-10-02T03:50:50.660Z,11.57
2018-10-02T03:53:25.141Z,12.40
2018-10-02T03:55:59.830Z,12.57
2018-10-02T03:58:35.037Z,11.93
2018-10-02T04:01:09.403Z,14.23
2018-10-02T04:03:44.336Z,10.97
2018-10-02T04:06:19.510Z,12.50
2018-10-02T04:08:54.232Z,11.57
2018-10-02T04:11:28.643Z,12.93
2018-10-02T04:14:03.770Z,12.13
2018-10-02T04:16:38.653Z,17.00
2018-10-02T04:19:13.963Z,14.30
2018-10-02T04:21:48.687Z,14.83
2018-10-02T04:24:23.339Z,13.67
2018-10-02T04:26:57.872Z,19.07
2018-10-02T04:29:32.495Z,14.27
2018-10-02T04:32:07.147Z,13.67
2018-10-02T04:34:41.639Z,12.53
2018-10-02T04:37:16.319Z,15.13
2018-10-02T04:39:51.079Z,16.23
2018-10-02T04:42:25.588Z,13.73
2018-10-02T04:45:00.380Z,14.67
2018-10-02T04:47:34.717Z,12.83
2018-10-02T04:50:16.123Z,13.37
2018-10-02T04:52:51.247Z,12.00
2018-10-02T04:55:26.012Z,15.17
2018-10-02T04:58:00.759Z,12.40
2018-10-02T05:00:35.599Z,14.67
2018-10-02T05:03:10.400Z,14.83
2018-10-02T05:05:45.247Z,17.87
2018-10-02T05:08:19.679Z,15.30
2018-10-02T05:10:54.468Z,14.57
2018-10-02T05:13:28.903Z,17.37
2018-10-02T05:16:10.976Z,15.87
2018-10-02T05:18:46.139Z,14.40
2018-10-02T05:21:20.816Z,17.07
2018-10-02T05:23:55.189Z,13.73
2018-10-02T05:26:30.390Z,11.67
2018-10-02T05:29:04.821Z,14.27
2018-10-02T05:31:39.671Z,13.40
2018-10-02T05:34:14.299Z,13.37
2018-10-02T05:36:49.073Z,12.20
2018-10-02T05:39:23.754Z,13.33
2018-10-02T05:41:58.156Z,12.93
2018-10-02T05:44:32.488Z,14.83
2018-10-02T05:47:06.878Z,10.83
2018-10-02T05:49:41.440Z,12.63
2018-10-02T05:52:16.196Z,12.47
2018-10-02T05:54:51.008Z,17.37
2018-10-02T05:57:25.839Z,15.00
2018-10-02T06:00:00.147Z,13.60
2018-10-02T06:02:34.545Z,12.83
2018-10-02T06:05:09.666Z,15.03
2018-10-02T06:07:44.104Z,16.90
2018-10-02T06:10:18.989Z,13.27
2018-10-02T06:12:53.263Z,12.00
2018-10-02T06:15:27.768Z,14.10
2018-10-02T06:18:02.629Z,16.43
2018-10-02T06:20:37.560Z,17.53
2018-10-02T06:23:12.400Z,11.87
2018-10-02T06:25:47.276Z,16.13
2018-10-02T06:28:22.067Z,14.93
2018-10-02T06:30:56.816Z,13.27
2018-10-02T06:33:31.539Z,14.33
2018-10-02T06:36:06.215Z,13.00
2018-10-02T06:38:40.724Z,15.07
2018-10-02T06:41:15.563Z,15.27
2018-10-02T06:43:50.064Z,16.23
2018-10-02T06:46:24.825Z,15.30
2018-10-02T06:48:59.277Z,15.50
2018-10-02T06:51:34.120Z,14.10
2018-10-02T06:54:08.960Z,14.30
2018-10-02T06:56:43.662Z,14.53
2018-10-02T06:59:18.404Z,15.07
2018-10-02T07:01:53.523Z,12.80
2018-10-02T07:04:28.176Z,15.43
2018-10-02T07:07:02.824Z,17.87
2018-10-02T07:09:37.604Z,14.10
2018-10-02T07:12:11.932Z,14.20
2018-10-02T07:14:46.821Z,14.90
2018-10-02T07:17:21.669Z,17.37
2018-10-02T07:19:57.136Z,17.07
2018-10-02T07:22:31.891Z,15.63
2018-10-02T07:25:06.960Z,15.37
2018-10-02T07:27:41.652Z,19.67
2018-10-02T07:30:16.707Z,14.03
2018-10-02T07:32:51.403Z,15.60
2018-10-02T07:35:26.281Z,16.17
2018-10-02T07:38:00.767Z,16.97
2018-10-02T07:40:35.454Z,19.43
2018-10-02T07:43:09.984Z,14.17
2018-10-02T07:45:44.504Z,15.20
2018-10-02T07:48:19.601Z,14.17
2018-10-02T07:50:54.288Z,16.70
2018-10-02T07:53:28.939Z,16.23
2018-10-02T07:56:04.141Z,18.00
2018-10-02T07:58:38.712Z,12.23
2018-10-02T08:01:13.137Z,14.37
2018-10-02T08:03:47.470Z,18.87
2018-10-02T08:06:22.573Z,13.43
2018-10-02T08:08:57.811Z,13.90
2018-10-02T08:11:32.599Z,13.53
2018-10-02T08:14:07.807Z,13.33
2018-10-02T08:16:42.744Z,12.67
2018-10-02T08:19:17.612Z,13.83
2018-10-02T08:21:52.477Z,14.40
2018-10-02T08:24:27.015Z,15.63
2018-10-02T08:27:01.402Z,12.53
2018-10-02T08:29:36.493Z,13.60
2018-10-02T08:32:11.835Z,11.80
2018-10-02T08:34:46.756Z,12.97
2018-10-02T08:37:21.420Z,15.80
2018-10-02T08:39:55.867Z,11.87
2018-10-02T08:42:30.288Z,12.83
2018-10-02T08:45:05.458Z,10.23
2018-10-02T08:47:40.253Z,14.50
2018-10-02T08:50:15.002Z,14.00
2018-10-02T08:52:50.452Z,25.93
2018-10-02T08:55:25.075Z,10.57
2018-10-02T08:57:59.931Z,11.07
2018-10-02T09:00:34.604Z,11.87
2018-10-02T09:03:09.715Z,7.70
2018-10-02T09:05:44.410Z,11.37
2018-10-02T09:08:18.766Z,11.57
2018-10-02T09:10:53.476Z,12.23
2018-10-02T09:13:27.932Z,10.73
2018-10-02T09:16:02.961Z,11.90
2018-10-02T09:18:37.946Z,8.60
2018-10-02T09:21:12.595Z,9.00
2018-10-02T09:23:47.438Z,10.67
2018-10-02T09:26:22.486Z,9.10
2018-10-02T09:28:57.360Z,8.07
2018-10-02T09:31:37.301Z,7.67
2018-10-02T09:36:21.059Z,12.13
2018-10-02T09:39:01.116Z,7.47
2018-10-02T09:41:41.100Z,7.30
2018-10-02T09:44:15.414Z,8.33
2018-10-02T09:46:50.032Z,5.90
2018-10-02T09:49:24.421Z,7.40
2018-10-02T09:51:59.485Z,5.47
2018-10-02T09:54:33.901Z,8.80
2018-10-02T09:57:08.576Z,7.43
2018-10-02T09:59:43.439Z,4.97
2018-10-02T10:02:23.373Z,6.77
2018-10-02T10:04:58.492Z,7.53
2018-10-02T10:07:33.019Z,5.97
2018-10-02T10:10:07.981Z,7.47
2018-10-02T10:12:42.444Z,7.20
2018-10-02T10:15:17.039Z,8.20
2018-10-02T10:17:51.525Z,4.83
2018-10-02T10:20:25.908Z,5.17
2018-10-02T10:23:00.489Z,6.10
2018-10-02T10:25:35.337Z,7.93
2018-10-02T10:28:09.940Z,5.03
2018-10-02T10:30:44.811Z,15.13
2018-10-02T10:33:19.584Z,7.03
2018-10-02T10:35:54.457Z,6.67
2018-10-02T10:38:29.843Z,7.33
2018-10-02T10:41:04.671Z,5.10
2018-10-02T10:43:41.000Z,5.87
2018-10-02T10:46:15.373Z,6.73
2018-10-02T10:48:49.802Z,6.13
2018-10-02T10:51:24.369Z,4.60
2018-10-02T10:53:59.037Z,5.23
2018-10-02T10:56:33.993Z,3.37
2018-10-02T10:59:08.617Z,6.50
2018-10-02T11:01:43.212Z,6.83
2018-10-02T11:04:18.008Z,4.77
2018-10-02T11:06:52.716Z,3.57
2018-10-02T11:09:27.392Z,6.43
2018-10-02T11:12:02.180Z,4.67
2018-10-02T11:14:36.728Z,5.50
2018-10-02T11:17:11.219Z,4.37
2018-10-02T11:19:45.584Z,8.20
2018-10-02T11:22:20.209Z,4.37
2018-10-02T11:24:54.913Z,7.17
2018-10-02T11:27:29.684Z,5.83
2018-10-02T11:30:04.755Z,5.00
2018-10-02T11:32:39.490Z,4.53
2018-10-02T11:35:14.105Z,4.13
2018-10-02T11:37:49.402Z,6.27
2018-10-02T11:40:24.089Z,6.53
2018-10-02T11:42:58.928Z,6.07
2018-10-02T11:45:33.388Z,7.10
2018-10-02T11:48:08.232Z,6.50
2018-10-02T11:50:42.912Z,4.70
2018-10-02T11:53:17.589Z,5.23
2018-10-02T11:55:52.554Z,5.90
2018-10-02T11:58:27.360Z,3.50
2018-10-02T12:01:01.869Z,5.60
2018-10-02T12:03:38.801Z,3.73
2018-10-02T12:06:14.055Z,4.53
2018-10-02T12:08:48.412Z,5.80
2018-10-02T12:11:23.322Z,6.07
2018-10-02T12:13:58.335Z,3.90
2018-10-02T12:16:32.997Z,4.53
2018-10-02T12:19:07.389Z,4.60
2018-10-02T12:21:41.815Z,5.10
2018-10-02T12:24:17.124Z,4.63
2018-10-02T12:26:51.510Z,4.60
2018-10-02T12:29:25.966Z,5.10
2018-10-02T12:32:00.397Z,7.03
2018-10-02T12:34:35.243Z,5.97
2018-10-02T12:37:10.205Z,6.70
2018-10-02T12:39:44.907Z,4.77
2018-10-02T12:42:19.644Z,5.10
2018-10-02T12:44:54.027Z,5.73
2018-10-02T12:47:28.910Z,6.00
2018-10-02T12:50:03.877Z,5.27
2018-10-02T12:52:38.435Z,4.30
2018-10-02T12:55:13.123Z,5.97
2018-10-02T12:57:47.660Z,3.80
2018-10-02T13:00:22.285Z,4.23
2018-10-02T13:02:56.902Z,6.47
2018-10-02T13:05:31.430Z,5.43
2018-10-02T13:08:05.902Z,5.20
2018-10-02T13:10:40.816Z,5.97
2018-10-02T13:13:15.451Z,6.90
2018-10-02T13:15:50.054Z,6.20
2018-10-02T13:18:25.771Z,3.53
2018-10-02T13:21:00.264Z,6.57
2018-10-02T13:23:34.870Z,4.60
2018-10-02T13:26:09.558Z,5.37
2018-10-02T13:28:44.054Z,5.43
2018-10-02T13:31:18.449Z,6.63
2018-10-02T13:33:53.349Z,9.30
2018-10-02T13:36:28.130Z,7.40
2018-10-02T13:39:02.541Z,4.17
2018-10-02T13:41:37.978Z,7.53
2018-10-02T13:44:12.564Z,7.70
2018-10-02T13:46:47.356Z,5.90
2018-10-02T13:49:21.884Z,4.50
2018-10-02T13:51:57.272Z,5.73
2018-10-02T13:54:32.026Z,4.87
2018-10-02T13:57:06.576Z,6.13
2018-10-02T13:59:41.620Z,5.10
2018-10-02T14:02:16.064Z,5.30
2018-10-02T14:04:50.481Z,6.03
2018-10-02T14:07:25.492Z,5.97
2018-10-02T14:10:00.176Z,5.70
2018-10-02T14:12:35.465Z,5.40
2018-10-02T14:15:10.137Z,4.80
2018-10-02T14:17:45.002Z,4.47
2018-10-02T14:20:19.632Z,3.87
2018-10-02T14:22:54.148Z,5.33
2018-10-02T14:25:29.200Z,3.70
2018-10-02T14:28:04.039Z,7.43
2018-10-02T14:30:39.116Z,5.37
2018-10-02T14:33:13.448Z,3.33
2018-10-02T14:35:48.207Z,4.67
2018-10-02T14:38:22.731Z,4.23
2018-10-02T14:40:57.428Z,3.77
2018-10-02T14:43:45.126Z,5.43
2018-10-02T14:46:19.629Z,5.47
2018-10-02T14:48:54.556Z,4.00
2018-10-02T14:51:29.033Z,4.63
2018-10-02T14:54:03.580Z,4.27
2018-10-02T14:56:38.089Z,6.33
2018-10-02T14:59:12.537Z,5.30
2018-10-02T15:01:47.240Z,6.13
2018-10-02T15:04:22.090Z,6.30
2018-10-02T15:06:56.833Z,4.70
2018-10-02T15:09:31.324Z,4.77
2018-10-02T15:12:05.872Z,4.07
2018-10-02T15:14:41.762Z,6.77
2018-10-02T15:17:16.281Z,6.17
2018-10-02T15:19:50.624Z,5.43
2018-10-02T15:22:25.274Z,4.50
2018-10-02T15:24:59.618Z,6.07
2018-10-02T15:27:34.311Z,6.00
2018-10-02T15:30:09.422Z,5.83
2018-10-02T15:32:44.076Z,5.23
2018-10-02T15:35:18.616Z,6.57
2018-10-02T15:37:53.502Z,6.23
2018-10-02T15:40:28.589Z,5.77
2018-10-02T15:43:03.954Z,5.20
2018-10-02T15:45:38.500Z,7.50
2018-10-02T15:48:12.945Z,7.10
2018-10-02T15:50:47.471Z,4.33
2018-10-02T15:53:22.081Z,4.10
2018-10-02T15:55:57.228Z,5.93
2018-10-02T15:58:31.675Z,4.07
2018-10-02T16:01:06.448Z,4.73
2018-10-02T16:03:57.409Z,4.53
2018-10-02T16:06:31.863Z,4.70
2018-10-02T16:09:06.713Z,6.87
2018-10-02T16:11:41.565Z,6.10
2018-10-02T16:14:16.569Z,7.37
2018-10-02T16:16:51.391Z,8.30
2018-10-02T16:19:25.868Z,6.70
2018-10-02T16:22:00.346Z,4.93
2018-10-02T16:24:35.350Z,4.67
2018-10-02T16:27:10.377Z,4.10
2018-10-02T16:29:44.853Z,4.93
2018-10-02T16:32:19.487Z,4.77
2018-10-02T16:34:54.261Z,4.50
2018-10-02T16:37:28.948Z,5.73
2018-10-02T16:40:07.425Z,4.70
2018-10-02T16:42:42.521Z,7.30
2018-10-02T16:45:17.381Z,6.10
2018-10-02T16:47:55.265Z,8.50
2018-10-02T16:50:30.720Z,7.00
2018-10-02T16:53:05.905Z,6.40
2018-10-02T16:55:40.520Z,6.10
2018-10-02T16:58:15.071Z,8.73
2018-10-02T17:00:49.908Z,5.33
2018-10-02T17:03:24.375Z,5.77
2018-10-02T17:05:58.684Z,6.07
2018-10-02T17:08:33.015Z,9.03
2018-10-02T17:11:07.634Z,8.30
2018-10-02T17:13:48.260Z,7.73
2018-10-02T17:16:22.746Z,6.63
2018-10-02T17:18:57.505Z,5.90
2018-10-02T17:21:32.340Z,6.80
2018-10-02T17:24:06.678Z,7.00
2018-10-02T17:26:41.220Z,5.87
2018-10-02T17:29:16.079Z,8.50
2018-10-02T17:31:50.628Z,8.83
2018-10-02T17:34:25.591Z,8.37
2018-10-02T17:37:00.532Z,7.43
2018-10-02T17:39:53.618Z,6.13
2018-10-02T17:42:28.081Z,6.93
2018-10-02T17:45:02.776Z,7.40
2018-10-02T17:47:41.604Z,9.07
2018-10-02T17:50:17.329Z,7.63
2018-10-02T17:52:51.792Z,6.90
2018-10-02T17:55:27.885Z,8.77
2018-10-02T17:58:02.344Z,6.33
2018-10-02T18:00:37.750Z,7.37
2018-10-02T18:03:12.213Z,7.37
2018-10-02T18:05:49.342Z,8.07
2018-10-02T18:08:23.775Z,6.33
2018-10-02T18:10:58.840Z,6.67
2018-10-02T18:13:43.472Z,6.13
2018-10-02T18:16:19.084Z,9.30
2018-10-02T18:18:53.677Z,6.70
2018-10-02T18:21:31.715Z,7.30
2018-10-02T18:24:07.734Z,6.50
2018-10-02T18:26:42.565Z,7.80
2018-10-02T18:29:17.588Z,7.07
2018-10-02T18:31:52.552Z,5.80
2018-10-02T18:34:27.429Z,8.43
2018-10-02T18:37:03.474Z,7.87
2018-10-02T18:39:38.760Z,8.07
2018-10-02T18:42:13.233Z,9.27
2018-10-02T18:44:48.525Z,7.13
2018-10-02T18:47:23.110Z,7.87
2018-10-02T18:49:58.419Z,6.63
2018-10-02T18:52:32.820Z,6.27
2018-10-02T18:55:08.404Z,6.13
2018-10-02T18:57:43.008Z,5.20
2018-10-02T19:00:18.364Z,6.73
2018-10-02T19:02:59.672Z,4.87
2018-10-02T19:05:34.461Z,7.10
2018-10-02T19:08:09.005Z,5.63
2018-10-02T19:10:43.947Z,7.73
2018-10-02T19:13:18.373Z,6.03
2018-10-02T19:15:58.977Z,8.07
2018-10-02T19:18:33.868Z,7.60
2018-10-02T19:21:09.199Z,6.73
2018-10-02T19:23:43.535Z,5.77
2018-10-02T19:26:22.024Z,10.13
2018-10-02T19:28:56.803Z,5.97
2018-10-02T19:31:37.053Z,5.67
2018-10-02T19:34:11.705Z,5.27
2018-10-02T19:36:46.311Z,5.13
2018-10-02T19:39:32.169Z,5.77
2018-10-02T19:42:06.976Z,5.63
2018-10-02T19:44:41.276Z,4.37
2018-10-02T19:47:16.224Z,3.50
2018-10-02T19:49:51.336Z,3.77
2018-10-02T19:52:26.204Z,6.27
2018-10-02T19:55:01.311Z,5.87
2018-10-02T19:57:40.236Z,5.07
2018-10-02T20:00:14.746Z,3.47
2018-10-02T20:02:49.355Z,5.67
2018-10-02T20:05:23.816Z,4.50
2018-10-02T20:07:58.243Z,4.80
2018-10-02T20:10:32.959Z,3.80
2018-10-02T20:13:07.539Z,3.70
2018-10-02T20:15:42.869Z,3.40
2018-10-02T20:18:17.255Z,3.77
2018-10-02T20:20:51.967Z,6.03
2018-10-02T20:23:26.513Z,4.80
2018-10-02T20:26:01.552Z,4.17
2018-10-02T20:34:36.196Z,6.67
2018-10-02T20:37:10.629Z,5.57
2018-10-02T20:39:45.101Z,6.60
2018-10-02T20:42:19.460Z,5.13
2018-10-02T20:44:53.992Z,5.43
2018-10-02T20:47:30.678Z,5.00
2018-10-02T20:50:05.691Z,6.13
2018-10-02T20:52:40.100Z,5.47
2018-10-02T20:55:14.533Z,4.03
2018-10-02T20:57:59.200Z,3.87
2018-10-02T21:00:34.133Z,5.20
2018-10-02T21:03:08.670Z,4.27
2018-10-02T21:05:43.496Z,4.27
2018-10-02T21:08:25.571Z,3.57
2018-10-02T21:11:00.155Z,5.43
2018-10-02T21:13:34.978Z,4.97
2018-10-02T21:16:09.477Z,4.37
2018-10-02T21:18:43.824Z,5.00
2018-10-02T21:21:18.316Z,4.27
2018-10-02T21:23:52.784Z,4.13
2018-10-02T21:26:27.527Z,4.73
2018-10-02T21:29:02.473Z,5.83
2018-10-02T21:31:37.786Z,6.07
2018-10-02T21:34:12.652Z,4.47
2018-10-02T21:36:47.236Z,4.17
2018-10-02T21:39:21.699Z,7.43
2018-10-02T21:42:03.920Z,4.93
2018-10-02T21:44:38.311Z,5.87
2018-10-02T21:47:13.276Z,4.73
2018-10-02T21:49:47.863Z,4.93
2018-10-02T21:52:22.642Z,5.67
2018-10-02T21:54:57.110Z,5.43
2018-10-02T21:57:31.416Z,5.97
2018-10-02T22:00:06.914Z,3.97
2018-10-02T22:02:41.561Z,6.17
2018-10-02T22:05:16.370Z,4.50
2018-10-02T22:07:50.883Z,5.17
2018-10-02T22:10:26.089Z,4.40
2018-10-02T22:13:00.778Z,6.10
2018-10-02T22:15:35.987Z,4.63
2018-10-02T22:18:11.091Z,5.33
2018-10-02T22:20:45.851Z,4.73
2018-10-02T22:23:20.427Z,6.13
2018-10-02T22:25:55.305Z,6.23
2018-10-02T22:28:29.663Z,5.00
2018-10-02T22:31:04.664Z,4.57
2018-10-02T22:33:40.074Z,6.27
2018-10-02T22:36:14.828Z,6.93
2018-10-02T22:38:49.340Z,5.63
2018-10-02T22:41:23.676Z,7.63
2018-10-02T22:43:58.168Z,5.70
2018-10-02T22:46:32.907Z,5.90
2018-10-02T22:49:07.623Z,6.47
2018-10-02T22:51:42.360Z,6.07
2018-10-02T22:54:16.938Z,7.87
2018-10-02T22:56:51.485Z,7.17
2018-10-02T22:59:25.987Z,6.13
2018-10-02T23:02:00.260Z,5.63
2018-10-02T23:04:34.724Z,8.37
2018-10-02T23:07:09.568Z,5.80
2018-10-02T23:09:44.264Z,5.80
2018-10-02T23:12:19.355Z,7.03
2018-10-02T23:14:53.695Z,6.87
2018-10-02T23:17:28.383Z,8.97
2018-10-02T23:20:03.100Z,7.57
2018-10-02T23:22:37.559Z,5.50
2018-10-02T23:25:12.099Z,8.70
2018-10-02T23:27:46.704Z,5.73
2018-10-02T23:30:21.776Z,7.27
2018-10-02T23:32:56.564Z,5.90
2018-10-02T23:35:31.856Z,6.20
2018-10-02T23:38:06.348Z,6.13
2018-10-02T23:40:40.725Z,6.73
2018-10-02T23:43:15.239Z,5.40
2018-10-02T23:45:49.764Z,5.60
2018-10-02T23:48:24.183Z,6.63
2018-10-02T23:50:58.688Z,6.27
2018-10-02T23:53:33.779Z,5.63
2018-10-02T23:56:08.435Z,5.90
2018-10-02T23:58:43.162Z,5.20
